createdAt,value
2023-03-04T00:00:12.695Z,100036.94
2023-03-04T00:02:41.852Z,100047.13
2023-03-04T00:05:11.030Z,100050.47
2023-03-04T00:07:39.643Z,100042.94
2023-03-04T00:10:09.922Z,100047.13
2023-03-04T00:12:40.001Z,100046.34
2023-03-04T00:15:10.277Z,100052.19
2023-03-04T00:17:38.987Z,100048.88
2023-03-04T00:20:09.908Z,100048.09
2023-03-04T00:22:38.580Z,100050.66
2023-03-04T00:25:08.652Z,100056.63
2023-03-04T00:27:37.239Z,100058.31
2023-03-04T00:30:09.368Z,100047.41
2023-03-04T00:32:38.048Z,100049.16
2023-03-04T00:35:08.068Z,100053.34
2023-03-04T00:37:36.962Z,100059.34
2023-03-04T00:40:07.467Z,100056.81
2023-03-04T00:42:36.118Z,100056.81
2023-03-04T00:45:07.499Z,100053.44
2023-03-04T00:47:36.237Z,100055.13
2023-03-04T00:50:06.043Z,100063.63
2023-03-04T00:52:34.842Z,100063.63
2023-03-04T00:55:03.710Z,100068.69
2023-03-04T00:57:32.368Z,100066.16
2023-03-04T01:00:01.668Z,100070.44
2023-03-04T01:02:31.742Z,100065.38
2023-03-04T01:05:00.345Z,100059.56
2023-03-04T01:07:29.084Z,100057.94
2023-03-04T01:09:57.679Z,100052.13
2023-03-04T01:12:26.663Z,100060.59
2023-03-04T01:14:55.394Z,100048.78
2023-03-04T01:17:24.311Z,100051.31
2023-03-04T01:19:54.381Z,100057.22
2023-03-04T01:22:23.080Z,100061.44
2023-03-04T01:24:51.741Z,100054.75
2023-03-04T01:27:20.588Z,100050.56
2023-03-04T01:29:49.319Z,100051.44
2023-03-04T01:32:18.039Z,100054.81
2023-03-04T01:34:46.702Z,100044.75
2023-03-04T01:37:16.778Z,100042.28
2023-03-04T01:39:45.565Z,100038.97
2023-03-04T01:42:21.115Z,100035.63
2023-03-04T01:44:50.738Z,100033.13
2023-03-04T01:47:20.565Z,100034.88
2023-03-04T01:49:54.822Z,100032.38
2023-03-04T01:52:26.075Z,100026.47
2023-03-04T01:54:55.661Z,100029.81
2023-03-04T01:57:27.048Z,100030.66
2023-03-04T02:00:24.458Z,100030.75
2023-03-04T02:02:56.844Z,100019.88
2023-03-04T02:05:25.786Z,100025.88
2023-03-04T02:07:57.349Z,100020.03
2023-03-04T02:10:26.601Z,100023.38
2023-03-04T02:12:55.516Z,100008.25
2023-03-04T02:15:25.920Z,100012.53
2023-03-04T02:17:54.526Z,100012.53
2023-03-04T02:20:57.077Z,100010.03
2023-03-04T02:23:34.749Z,100010.97
2023-03-04T02:26:17.419Z,100013.50
2023-03-04T02:28:50.462Z,100006.81
2023-03-04T02:31:26.592Z,100011.09
2023-03-04T02:33:58.104Z,100005.25
2023-03-04T02:36:30.276Z,100006.09
2023-03-04T02:39:06.075Z,100008.69
2023-03-04T02:41:36.803Z,100006.22
2023-03-04T02:44:16.664Z,99988.59
2023-03-04T02:46:45.838Z,99991.19
2023-03-04T02:49:14.986Z,100006.38
2023-03-04T02:51:43.711Z,99999.66
2023-03-04T02:54:17.671Z,99999.75
2023-03-04T02:56:48.597Z,99998.94
2023-03-04T02:59:18.730Z,99996.41
2023-03-04T03:01:47.928Z,99990.50
2023-03-04T03:04:17.375Z,99993.88
2023-03-04T03:06:46.554Z,99987.16
2023-03-04T03:09:15.338Z,99993.84
2023-03-04T03:11:44.081Z,99987.16
2023-03-04T03:14:14.591Z,99997.31
2023-03-04T03:16:43.346Z,99994.72
2023-03-04T03:19:13.007Z,99994.78
2023-03-04T03:21:42.238Z,99987.19
2023-03-04T03:24:10.895Z,99993.06
2023-03-04T03:26:40.032Z,99988.88
2023-03-04T03:29:09.875Z,99986.31
2023-03-04T03:31:40.040Z,99994.72
2023-03-04T03:34:08.715Z,99988.78
2023-03-04T03:36:37.532Z,99993.03
2023-03-04T03:39:06.320Z,99993.03
2023-03-04T03:41:35.012Z,99993.06
2023-03-04T03:44:03.683Z,99993.16
2023-03-04T03:46:32.349Z,99989.78
2023-03-04T03:49:02.391Z,99996.50
2023-03-04T03:51:31.084Z,99996.41
2023-03-04T03:53:59.732Z,99997.22
2023-03-04T03:56:28.360Z,100001.41
2023-03-04T03:58:57.009Z,99997.97
2023-03-04T04:01:25.629Z,99994.59
2023-03-04T04:03:54.501Z,99997.91
2023-03-04T04:06:24.697Z,99990.31
2023-03-04T04:08:53.660Z,99988.66
2023-03-04T04:11:22.482Z,99998.72
2023-03-04T04:13:51.075Z,99998.69
2023-03-04T04:16:19.702Z,99987.66
2023-03-04T04:18:48.388Z,99991.84
2023-03-04T04:21:17.175Z,99986.78
2023-03-04T04:23:47.163Z,99987.59
2023-03-04T04:26:15.897Z,99990.13
2023-03-04T04:28:44.538Z,99981.66
2023-03-04T04:31:13.141Z,99984.09
2023-03-04T04:33:41.820Z,99983.28
2023-03-04T04:36:14.489Z,99986.63
2023-03-04T04:38:43.269Z,99984.94
2023-03-04T04:41:22.940Z,99989.16
2023-03-04T04:43:51.942Z,99991.69
2023-03-04T04:46:21.399Z,99983.28
2023-03-04T04:48:50.199Z,99981.56
2023-03-04T04:51:18.811Z,99985.75
2023-03-04T04:53:47.483Z,99992.47
2023-03-04T04:56:20.113Z,99980.69
2023-03-04T04:58:49.729Z,99989.09
2023-03-04T05:01:18.707Z,99990.81
2023-03-04T05:03:49.738Z,99987.44
2023-03-04T05:06:18.412Z,99990.72
2023-03-04T05:08:47.183Z,99985.66
2023-03-04T05:11:19.507Z,99990.72
2023-03-04T05:13:49.144Z,99981.53
2023-03-04T05:16:18.337Z,99982.44
2023-03-04T05:18:47.614Z,99983.28
2023-03-04T05:21:16.694Z,99990.00
2023-03-04T05:23:45.992Z,99991.63
2023-03-04T05:26:19.388Z,99990.81
2023-03-04T05:28:48.010Z,99995.88
2023-03-04T05:31:17.966Z,99989.09
2023-03-04T05:33:46.617Z,99990.81
2023-03-04T05:36:15.251Z,99982.44
2023-03-04T05:38:43.922Z,99990.88
2023-03-04T05:41:12.610Z,99988.34
2023-03-04T05:43:43.730Z,99978.22
2023-03-04T05:46:16.325Z,99979.03
2023-03-04T05:48:45.594Z,99974.81
2023-03-04T05:51:14.195Z,99979.03
2023-03-04T05:53:43.251Z,99976.56
2023-03-04T05:56:13.563Z,99980.81
2023-03-04T05:58:44.642Z,99974.09
2023-03-04T06:01:13.394Z,99984.16
2023-03-04T06:03:43.401Z,99979.94
2023-03-04T06:06:12.455Z,99987.50
2023-03-04T06:08:41.105Z,99998.56
2023-03-04T06:11:09.799Z,99996.03
2023-03-04T06:13:38.908Z,100001.97
2023-03-04T06:16:09.617Z,100004.44
2023-03-04T06:18:38.405Z,100004.44
2023-03-04T06:21:07.479Z,100006.91
2023-03-04T06:23:36.134Z,100003.47
2023-03-04T06:26:05.816Z,100006.00
2023-03-04T06:28:34.468Z,100014.28
2023-03-04T06:31:03.052Z,100020.16
2023-03-04T06:33:33.069Z,100015.94
2023-03-04T06:36:01.800Z,100016.75
2023-03-04T06:38:30.410Z,100020.09
2023-03-04T06:41:07.711Z,100027.63
2023-03-04T06:43:36.338Z,100020.03
2023-03-04T06:46:05.211Z,100025.09
2023-03-04T06:48:35.308Z,100024.25
2023-03-04T06:51:08.554Z,100035.22
2023-03-04T06:53:37.696Z,100028.44
2023-03-04T06:56:07.630Z,100034.25
2023-03-04T06:58:36.708Z,100040.94
2023-03-04T07:01:14.255Z,100032.50
2023-03-04T07:03:44.629Z,100038.38
2023-03-04T07:06:15.834Z,100039.22
2023-03-04T07:08:45.329Z,100043.41
2023-03-04T07:11:14.259Z,100042.50
2023-03-04T07:13:43.216Z,100044.13
2023-03-04T07:16:14.900Z,100044.19
2023-03-04T07:18:45.453Z,100050.06
2023-03-04T07:21:16.276Z,100047.53
2023-03-04T07:23:45.111Z,100058.44
2023-03-04T07:26:14.030Z,100049.13
2023-03-04T07:28:43.527Z,100055.84
2023-03-04T07:31:15.063Z,100058.38
2023-03-04T07:33:45.079Z,100060.03
2023-03-04T07:36:14.943Z,100067.59
2023-03-04T07:38:46.059Z,100065.84
2023-03-04T07:41:14.895Z,100067.47
2023-03-04T07:43:43.628Z,100066.63
2023-03-04T07:46:12.906Z,100071.63
2023-03-04T07:48:41.913Z,100069.03
2023-03-04T07:51:15.312Z,100070.72
2023-03-04T07:53:46.710Z,100074.03
2023-03-04T07:56:19.247Z,100065.56
2023-03-04T07:58:48.443Z,100072.28
2023-03-04T08:01:20.072Z,100068.06
2023-03-04T08:03:48.808Z,100075.59
2023-03-04T08:06:21.339Z,100078.03
2023-03-04T08:08:50.891Z,100072.91
2023-03-04T08:11:22.184Z,100072.84
2023-03-04T08:13:54.112Z,100078.72
2023-03-04T08:16:25.234Z,100075.28
2023-03-04T08:18:55.838Z,100081.16
2023-03-04T08:21:27.876Z,100081.03
2023-03-04T08:23:59.153Z,100080.13
2023-03-04T08:26:31.612Z,100078.44
2023-03-04T08:29:03.980Z,100088.47
2023-03-04T08:31:33.640Z,100085.06
2023-03-04T08:34:05.008Z,100074.03
2023-03-04T08:36:35.496Z,100078.28
2023-03-04T08:39:04.552Z,100087.44
2023-03-04T08:41:33.908Z,100082.31
2023-03-04T08:44:03.179Z,100089.84
2023-03-04T08:46:32.146Z,100082.16
2023-03-04T08:49:00.878Z,100087.97
2023-03-04T08:51:29.872Z,100081.16
2023-03-04T08:53:59.904Z,100077.75
2023-03-04T08:56:28.567Z,100077.66
2023-03-04T08:58:57.282Z,100082.63
2023-03-04T09:01:26.011Z,100076.63
2023-03-04T09:03:54.733Z,100074.88
2023-03-04T09:06:23.492Z,100086.59
2023-03-04T09:08:52.102Z,100083.16
2023-03-04T09:11:22.129Z,100078.81
2023-03-04T09:13:51.898Z,100076.28
2023-03-04T09:16:20.579Z,100075.31
2023-03-04T09:18:49.482Z,100085.31
2023-03-04T09:21:18.335Z,100083.59
2023-03-04T09:23:46.946Z,100081.81
2023-03-04T09:26:24.249Z,100079.22
2023-03-04T09:28:54.131Z,100076.59
2023-03-04T09:31:24.301Z,100076.50
2023-03-04T09:33:54.135Z,100082.38
2023-03-04T09:36:23.968Z,100075.47
2023-03-04T09:38:52.846Z,100073.72
2023-03-04T09:41:26.819Z,100071.88
2023-03-04T09:43:57.358Z,100073.53
2023-03-04T09:46:34.653Z,100076.81
2023-03-04T09:49:05.993Z,100077.56
2023-03-04T09:51:49.721Z,100085.13
2023-03-04T09:54:31.383Z,100076.59
2023-03-04T09:57:19.307Z,100077.38
2023-03-04T09:59:58.271Z,100079.84
2023-03-04T10:02:43.765Z,100084.88
2023-03-04T10:05:19.432Z,100078.88
2023-03-04T10:07:56.864Z,100085.53
2023-03-04T10:10:30.630Z,100088.03
2023-03-04T10:13:02.416Z,100085.44
2023-03-04T10:15:38.069Z,100083.69
2023-03-04T10:18:20.560Z,100085.31
2023-03-04T10:20:58.252Z,100080.22
2023-03-04T10:23:28.799Z,100085.25
2023-03-04T10:25:57.799Z,100085.13
2023-03-04T10:28:31.156Z,100081.72
2023-03-04T10:31:04.471Z,100077.44
2023-03-04T10:33:36.320Z,100079.94
2023-03-04T10:36:20.771Z,100080.78
2023-03-04T10:38:49.329Z,100081.59
2023-03-04T10:41:22.636Z,100083.19
2023-03-04T10:44:03.983Z,100087.34
2023-03-04T10:46:33.698Z,100078.84
2023-03-04T10:49:02.290Z,100072.88
2023-03-04T10:51:32.408Z,100083.75
2023-03-04T10:54:08.528Z,100065.13
2023-03-04T10:56:42.863Z,100071.81
2023-03-04T10:59:35.481Z,100065.94
2023-03-04T11:02:18.756Z,100064.19
2023-03-04T11:04:53.689Z,100062.41
2023-03-04T11:07:23.447Z,100059.81
2023-03-04T11:09:52.262Z,100058.06
2023-03-04T11:12:32.939Z,100058.00
2023-03-04T11:15:03.589Z,100053.66
2023-03-04T11:17:45.374Z,100045.13
2023-03-04T11:20:21.554Z,100039.16
2023-03-04T11:22:51.877Z,100039.09
2023-03-04T11:25:29.411Z,100033.03
2023-03-04T11:28:02.722Z,100029.63
2023-03-04T11:30:42.221Z,100028.69
2023-03-04T11:33:25.379Z,100027.75
2023-03-04T11:36:07.831Z,100022.66
2023-03-04T11:38:40.781Z,100023.41
2023-03-04T11:41:16.389Z,100024.22
2023-03-04T11:43:48.629Z,100021.66
2023-03-04T11:46:53.664Z,100020.78
2023-03-04T11:49:54.668Z,100021.59
2023-03-04T11:52:42.221Z,100019.03
2023-03-04T11:55:28.429Z,100013.97
2023-03-04T11:58:09.007Z,100010.53
2023-03-04T12:00:48.999Z,100009.59
2023-03-04T12:03:39.299Z,100010.41
2023-03-04T12:06:14.246Z,100000.25
2023-03-04T12:09:03.541Z,100001.13
2023-03-04T12:11:45.750Z,100000.19
2023-03-04T12:14:29.774Z,100001.84
2023-03-04T12:17:21.046Z,99989.16
2023-03-04T12:20:28.691Z,99984.91
2023-03-04T12:23:13.240Z,99984.91
2023-03-04T12:25:46.890Z,99988.22
2023-03-04T12:28:39.410Z,99987.34
2023-03-04T12:31:32.298Z,99983.91
2023-03-04T12:35:04.560Z,99978.00
2023-03-04T12:38:14.991Z,99981.38
2023-03-04T12:40:51.791Z,99984.75
2023-03-04T12:43:41.885Z,99988.09
2023-03-04T12:46:31.611Z,99981.31
2023-03-04T12:49:22.948Z,99982.97
2023-03-04T12:52:03.731Z,99979.53
2023-03-04T12:54:37.204Z,99975.28
2023-03-04T12:57:13.610Z,99974.41
2023-03-04T12:59:50.334Z,99970.16
2023-03-04T13:03:08.601Z,99965.09
2023-03-04T13:05:58.265Z,99965.97
2023-03-04T13:08:38.050Z,99959.16
2023-03-04T13:11:53.337Z,99958.28
2023-03-04T13:14:39.996Z,99958.28
2023-03-04T13:17:50.352Z,99953.22
2023-03-04T13:20:26.644Z,99954.94
2023-03-04T13:22:58.228Z,99959.94
2023-03-04T13:25:44.078Z,99957.41
2023-03-04T13:28:27.973Z,99956.53
2023-03-04T13:31:24.259Z,99954.00
2023-03-04T13:34:00.349Z,99948.84
2023-03-04T13:36:58.020Z,99950.53
2023-03-04T13:39:32.812Z,99948.00
2023-03-04T13:42:04.136Z,99940.38
2023-03-04T13:45:06.687Z,99941.22
2023-03-04T13:47:48.860Z,99933.69
2023-03-04T13:50:47.058Z,99930.22
2023-03-04T13:53:44.783Z,99930.22
2023-03-04T13:56:31.393Z,99929.34
2023-03-04T13:59:24.390Z,99920.06
2023-03-04T14:02:09.816Z,99920.06
2023-03-04T14:04:40.916Z,99926.81
2023-03-04T14:07:24.408Z,99918.31
2023-03-04T14:10:04.788Z,99916.66
2023-03-04T14:12:36.413Z,99911.50
2023-03-04T14:15:20.465Z,99917.38
2023-03-04T14:17:53.442Z,99917.38
2023-03-04T14:20:27.777Z,99918.19
2023-03-04T14:22:57.663Z,99913.91
2023-03-04T14:25:29.128Z,99916.44
2023-03-04T14:28:07.568Z,99911.34
2023-03-04T14:30:43.654Z,99903.72
2023-03-04T14:33:20.991Z,99904.47
2023-03-04T14:35:53.084Z,99899.38
2023-03-04T14:38:26.564Z,99900.19
2023-03-04T14:41:00.747Z,99890.03
2023-03-04T14:43:32.260Z,99895.97
2023-03-04T14:46:04.213Z,99887.47
2023-03-04T14:48:34.499Z,99895.09
2023-03-04T14:51:04.844Z,99889.09
2023-03-04T14:53:35.859Z,99882.38
2023-03-04T14:56:08.318Z,99867.97
2023-03-04T14:58:39.599Z,99866.16
2023-03-04T15:01:18.012Z,99868.66
2023-03-04T15:03:57.400Z,99873.75
2023-03-04T15:06:28.912Z,99867.00
2023-03-04T15:09:00.888Z,99865.34
2023-03-04T15:11:32.558Z,99857.75
2023-03-04T15:14:02.776Z,99867.00
2023-03-04T15:16:57.616Z,99863.63
2023-03-04T15:19:29.133Z,99859.47
2023-03-04T15:22:06.256Z,99856.00
2023-03-04T15:24:35.028Z,99856.84
2023-03-04T15:27:07.810Z,99859.41
2023-03-04T15:29:36.468Z,99850.94
2023-03-04T15:32:06.980Z,99860.22
2023-03-04T15:34:35.641Z,99857.66
2023-03-04T15:37:04.360Z,99863.59
2023-03-04T15:39:33.681Z,99856.84
2023-03-04T15:42:02.640Z,99855.91
2023-03-04T15:44:31.366Z,99849.16
2023-03-04T15:47:00.098Z,99860.16
2023-03-04T15:49:30.695Z,99855.91
2023-03-04T15:51:59.351Z,99844.91
2023-03-04T15:54:30.007Z,99845.81
2023-03-04T15:57:00.206Z,99844.09
2023-03-04T15:59:29.065Z,99843.22
2023-03-04T16:01:57.703Z,99841.56
2023-03-04T16:04:26.549Z,99844.91
2023-03-04T16:06:59.429Z,99840.75
2023-03-04T16:09:28.094Z,99843.28
2023-03-04T16:12:01.858Z,99841.63
2023-03-04T16:14:30.527Z,99836.53
2023-03-04T16:16:59.137Z,99841.63
2023-03-04T16:19:27.794Z,99839.09
2023-03-04T16:21:57.814Z,99834.88
2023-03-04T16:24:34.306Z,99838.31
2023-03-04T16:27:05.275Z,99838.31
2023-03-04T16:29:34.843Z,99843.38
2023-03-04T16:32:03.525Z,99843.38
2023-03-04T16:34:32.268Z,99838.31
2023-03-04T16:37:07.085Z,99841.69
2023-03-04T16:39:35.739Z,99848.47
2023-03-04T16:42:04.614Z,99847.72
2023-03-04T16:44:33.224Z,99844.34
2023-03-04T16:47:03.368Z,99843.53
2023-03-04T16:49:32.114Z,99846.06
2023-03-04T16:52:02.364Z,99840.25
2023-03-04T16:54:33.755Z,99842.78
2023-03-04T16:57:03.283Z,99833.44
2023-03-04T16:59:32.318Z,99829.22
2023-03-04T17:02:01.012Z,99836.78
2023-03-04T17:04:30.933Z,99834.31
2023-03-04T17:07:00.990Z,99830.91
2023-03-04T17:09:29.576Z,99834.31
2023-03-04T17:11:59.977Z,99846.94
2023-03-04T17:14:28.902Z,99841.06
2023-03-04T17:16:57.555Z,99841.88
2023-03-04T17:19:26.184Z,99837.69
2023-03-04T17:21:54.975Z,99838.56
2023-03-04T17:24:25.268Z,99846.19
2023-03-04T17:26:54.039Z,99844.47
2023-03-04T17:29:22.704Z,99852.94
2023-03-04T17:31:51.373Z,99841.13
2023-03-04T17:34:20.340Z,99843.66
2023-03-04T17:36:49.066Z,99844.47
2023-03-04T17:39:17.651Z,99843.66
2023-03-04T17:41:47.716Z,99848.75
2023-03-04T17:44:16.420Z,99844.47
2023-03-04T17:46:45.525Z,99847.88
2023-03-04T17:49:14.627Z,99847.88
2023-03-04T17:51:43.968Z,99845.31
2023-03-04T17:54:14.916Z,99845.31
2023-03-04T17:56:44.581Z,99838.56
2023-03-04T17:59:17.188Z,99845.31
2023-03-04T18:01:47.209Z,99839.47
2023-03-04T18:04:16.408Z,99838.66
2023-03-04T18:06:45.203Z,99839.53
2023-03-04T18:09:13.994Z,99842.00
2023-03-04T18:11:43.274Z,99828.56
2023-03-04T18:14:13.306Z,99827.78
2023-03-04T18:16:43.650Z,99832.13
2023-03-04T18:19:12.302Z,99832.88
2023-03-04T18:21:40.987Z,99823.59
2023-03-04T18:24:09.932Z,99820.97
2023-03-04T18:26:38.686Z,99821.81
2023-03-04T18:29:07.362Z,99817.56
2023-03-04T18:31:37.059Z,99817.56
2023-03-04T18:34:07.368Z,99817.56
2023-03-04T18:36:36.081Z,99808.25
2023-03-04T18:39:07.344Z,99818.41
2023-03-04T18:41:36.330Z,99814.22
2023-03-04T18:44:05.952Z,99811.66
2023-03-04T18:46:42.677Z,99815.03
2023-03-04T18:49:15.730Z,99815.09
2023-03-04T18:51:44.415Z,99814.34
2023-03-04T18:54:13.069Z,99821.06
2023-03-04T18:56:45.975Z,99815.97
2023-03-04T18:59:20.706Z,99819.34
2023-03-04T19:01:51.182Z,99813.44
2023-03-04T19:04:24.899Z,99813.44
2023-03-04T19:06:54.761Z,99811.81
2023-03-04T19:09:23.480Z,99815.97
2023-03-04T19:11:52.247Z,99816.88
2023-03-04T19:14:20.844Z,99815.91
2023-03-04T19:16:49.602Z,99815.09
2023-03-04T19:19:18.386Z,99814.22
2023-03-04T19:21:48.423Z,99816.75
2023-03-04T19:24:17.196Z,99810.97
2023-03-04T19:26:45.998Z,99814.34
2023-03-04T19:29:15.211Z,99816.03
2023-03-04T19:31:44.599Z,99816.03
2023-03-04T19:34:13.485Z,99819.47
2023-03-04T19:36:42.184Z,99811.09
2023-03-04T19:39:14.181Z,99806.91
2023-03-04T19:41:43.050Z,99800.09
2023-03-04T19:44:11.776Z,99805.19
2023-03-04T19:46:40.494Z,99795.03
2023-03-04T19:49:10.123Z,99806.03
2023-03-04T19:51:39.239Z,99798.34
2023-03-04T19:54:07.946Z,99805.94
2023-03-04T19:56:38.027Z,99806.72
2023-03-04T19:59:06.768Z,99809.19
2023-03-04T20:01:37.949Z,99810.00
2023-03-04T20:04:09.662Z,99810.00
2023-03-04T20:06:40.452Z,99806.59
2023-03-04T20:09:09.540Z,99810.81
2023-03-04T20:11:56.286Z,99804.94
2023-03-04T20:14:26.226Z,99799.84
2023-03-04T20:16:55.243Z,99802.41
2023-03-04T20:19:23.856Z,99806.59
2023-03-04T20:21:52.474Z,99798.97
2023-03-04T20:24:23.315Z,99795.59
2023-03-04T20:26:54.162Z,99804.06
2023-03-04T20:29:22.944Z,99789.69
2023-03-04T20:31:51.683Z,99801.59
2023-03-04T20:34:20.323Z,99812.56
2023-03-04T20:36:48.949Z,99804.13
2023-03-04T20:39:28.711Z,99803.28
2023-03-04T20:42:00.690Z,99806.72
2023-03-04T20:44:29.595Z,99805.06
2023-03-04T20:46:58.366Z,99805.81
2023-03-04T20:49:29.269Z,99805.88
2023-03-04T20:52:06.201Z,99809.19
2023-03-04T20:54:35.762Z,99806.66
2023-03-04T20:57:08.003Z,99799.03
2023-03-04T20:59:37.958Z,99800.66
2023-03-04T21:02:07.627Z,99794.78
2023-03-04T21:04:36.555Z,99799.03
2023-03-04T21:07:05.495Z,99797.31
2023-03-04T21:09:34.208Z,99783.88
2023-03-04T21:12:02.909Z,99786.41
2023-03-04T21:14:33.807Z,99779.69
2023-03-04T21:17:05.543Z,99785.72
2023-03-04T21:19:36.827Z,99796.00
2023-03-04T21:22:05.634Z,99789.28
2023-03-04T21:24:39.316Z,99789.34
2023-03-04T21:27:08.493Z,99796.88
2023-03-04T21:29:38.535Z,99785.88
2023-03-04T21:32:23.831Z,99775.69
2023-03-04T21:34:54.421Z,99788.31
2023-03-04T21:37:24.397Z,99777.25
2023-03-04T21:39:53.071Z,99769.63
2023-03-04T21:42:21.814Z,99772.13
2023-03-04T21:44:52.277Z,99766.16
2023-03-04T21:47:21.650Z,99776.25
2023-03-04T21:49:50.575Z,99771.13
2023-03-04T21:52:19.884Z,99776.19
2023-03-04T21:54:49.675Z,99772.75
2023-03-04T21:57:19.038Z,99771.03
2023-03-04T21:59:47.698Z,99771.03
2023-03-04T22:02:19.869Z,99767.63
2023-03-04T22:04:48.777Z,99762.53
2023-03-04T22:07:17.902Z,99766.72
2023-03-04T22:09:46.643Z,99770.97
2023-03-04T22:12:17.650Z,99765.00
2023-03-04T22:14:47.869Z,99767.50
2023-03-04T22:17:18.042Z,99764.09
2023-03-04T22:19:47.049Z,99764.16
2023-03-04T22:22:18.053Z,99759.94
2023-03-04T22:24:46.777Z,99760.75
2023-03-04T22:27:15.415Z,99763.28
2023-03-04T22:29:44.088Z,99760.69
2023-03-04T22:32:12.720Z,99757.31
2023-03-04T22:34:42.764Z,99752.31
2023-03-04T22:37:11.367Z,99753.28
2023-03-04T22:39:40.061Z,99751.63
2023-03-04T22:42:11.517Z,99753.28
2023-03-04T22:44:40.202Z,99754.94
2023-03-04T22:47:09.012Z,99748.19
2023-03-04T22:49:37.925Z,99754.00
2023-03-04T22:52:08.052Z,99748.94
2023-03-04T22:54:36.642Z,99751.53
2023-03-04T22:57:05.407Z,99751.53
2023-03-04T22:59:34.151Z,99753.19
2023-03-04T23:02:02.786Z,99738.84
2023-03-04T23:04:31.522Z,99745.59
2023-03-04T23:07:00.149Z,99742.22
2023-03-04T23:09:30.829Z,99747.31
2023-03-04T23:11:59.493Z,99739.69
2023-03-04T23:14:28.302Z,99736.31
2023-03-04T23:16:57.119Z,99736.31
2023-03-04T23:19:25.888Z,99737.19
2023-03-04T23:21:54.601Z,99743.13
2023-03-04T23:24:24.656Z,99740.56
2023-03-04T23:26:54.719Z,99736.38
2023-03-04T23:29:23.436Z,99744.00
2023-03-04T23:31:52.107Z,99735.56
2023-03-04T23:34:22.097Z,99728.75
2023-03-04T23:36:50.825Z,99728.91
2023-03-04T23:39:19.849Z,99739.06
2023-03-04T23:41:48.478Z,99724.63
2023-03-04T23:44:18.644Z,99720.41
2023-03-04T23:46:47.298Z,99722.09
2023-03-04T23:49:17.906Z,99722.94
2023-03-04T23:51:47.091Z,99726.38
2023-03-04T23:54:16.371Z,99721.28
2023-03-04T23:56:45.140Z,99723.84
2023-03-04T23:59:13.905Z,99719.50
